sensor_id;sensor_type;location;lat;lon;timestamp;temperature;humidity
72277;SHT30;61204;49.980;8.358;2022-09-09T00:05:00;15.45;89.46
72277;SHT30;61204;49.980;8.358;2022-09-09T00:07:52;15.45;88.32
72277;SHT30;61204;49.980;8.358;2022-09-09T00:10:29;15.41;88.45
72277;SHT30;61204;49.980;8.358;2022-09-09T00:13:02;15.39;88.45
72277;SHT30;61204;49.980;8.358;2022-09-09T00:18:27;15.24;88.75
72277;SHT30;61204;49.980;8.358;2022-09-09T00:21:17;15.14;88.83
72277;SHT30;61204;49.980;8.358;2022-09-09T00:24:13;15.07;89.42
72277;SHT30;61204;49.980;8.358;2022-09-09T00:27:01;15.03;89.86
72277;SHT30;61204;49.980;8.358;2022-09-09T00:29:46;14.93;89.86
72277;SHT30;61204;49.980;8.358;2022-09-09T00:32:20;14.89;90.34
72277;SHT30;61204;49.980;8.358;2022-09-09T00:35:25;14.83;90.62
72277;SHT30;61204;49.980;8.358;2022-09-09T00:38:02;14.75;90.74
72277;SHT30;61204;49.980;8.358;2022-09-09T00:40:51;14.68;90.89
72277;SHT30;61204;49.980;8.358;2022-09-09T00:43:35;14.65;91.27
72277;SHT30;61204;49.980;8.358;2022-09-09T00:50:00;14.54;91.69
72277;SHT30;61204;49.980;8.358;2022-09-09T00:55:47;14.37;91.78
72277;SHT30;61204;49.980;8.358;2022-09-09T00:58:20;14.39;92.50
72277;SHT30;61204;49.980;8.358;2022-09-09T01:01:01;14.31;92.42
72277;SHT30;61204;49.980;8.358;2022-09-09T01:06:32;14.24;92.90
72277;SHT30;61204;49.980;8.358;2022-09-09T01:09:32;14.20;92.79
72277;SHT30;61204;49.980;8.358;2022-09-09T01:12:26;14.25;92.65
72277;SHT30;61204;49.980;8.358;2022-09-09T01:15:24;14.24;92.50
72277;SHT30;61204;49.980;8.358;2022-09-09T01:18:13;14.24;92.45
72277;SHT30;61204;49.980;8.358;2022-09-09T01:24:27;14.29;92.64
72277;SHT30;61204;49.980;8.358;2022-09-09T01:27:03;14.24;92.46
72277;SHT30;61204;49.980;8.358;2022-09-09T01:29:32;14.28;92.48
72277;SHT30;61204;49.980;8.358;2022-09-09T01:35:36;14.27;92.45
72277;SHT30;61204;49.980;8.358;2022-09-09T01:38:04;14.21;92.71
72277;SHT30;61204;49.980;8.358;2022-09-09T01:40:31;14.16;92.79
72277;SHT30;61204;49.980;8.358;2022-09-09T01:42:57;14.13;93.15
72277;SHT30;61204;49.980;8.358;2022-09-09T01:45:24;14.14;93.15
72277;SHT30;61204;49.980;8.358;2022-09-09T01:47:52;14.07;93.02
72277;SHT30;61204;49.980;8.358;2022-09-09T01:50:21;14.03;93.33
72277;SHT30;61204;49.980;8.358;2022-09-09T01:52:52;14.06;93.60
72277;SHT30;61204;49.980;8.358;2022-09-09T01:55:33;14.07;93.60
72277;SHT30;61204;49.980;8.358;2022-09-09T01:58:51;14.01;93.58
72277;SHT30;61204;49.980;8.358;2022-09-09T02:02:13;14.03;93.75
72277;SHT30;61204;49.980;8.358;2022-09-09T02:04:48;14.01;93.77
72277;SHT30;61204;49.980;8.358;2022-09-09T02:07:34;13.99;93.66
72277;SHT30;61204;49.980;8.358;2022-09-09T02:13:10;14.06;93.91
72277;SHT30;61204;49.980;8.358;2022-09-09T02:16:22;14.14;93.81
72277;SHT30;61204;49.980;8.358;2022-09-09T02:19:06;14.18;93.63
72277;SHT30;61204;49.980;8.358;2022-09-09T02:21:39;14.14;93.57
72277;SHT30;61204;49.980;8.358;2022-09-09T02:24:12;14.13;93.68
72277;SHT30;61204;49.980;8.358;2022-09-09T02:26:47;14.07;93.80
72277;SHT30;61204;49.980;8.358;2022-09-09T02:29:40;14.04;93.80
72277;SHT30;61204;49.980;8.358;2022-09-09T02:32:18;14.11;94.10
72277;SHT30;61204;49.980;8.358;2022-09-09T02:34:53;14.21;93.97
72277;SHT30;61204;49.980;8.358;2022-09-09T02:37:27;14.16;93.69
72277;SHT30;61204;49.980;8.358;2022-09-09T02:40:00;14.16;93.51
72277;SHT30;61204;49.980;8.358;2022-09-09T02:42:28;14.07;93.49
72277;SHT30;61204;49.980;8.358;2022-09-09T02:44:53;14.01;93.54
72277;SHT30;61204;49.980;8.358;2022-09-09T02:47:37;14.00;93.84
72277;SHT30;61204;49.980;8.358;2022-09-09T02:53:10;14.17;93.86
72277;SHT30;61204;49.980;8.358;2022-09-09T02:56:21;14.17;93.82
72277;SHT30;61204;49.980;8.358;2022-09-09T02:58:52;14.13;93.82
72277;SHT30;61204;49.980;8.358;2022-09-09T03:01:20;14.14;93.68
72277;SHT30;61204;49.980;8.358;2022-09-09T03:03:46;14.21;93.69
72277;SHT30;61204;49.980;8.358;2022-09-09T03:06:13;14.21;93.64
72277;SHT30;61204;49.980;8.358;2022-09-09T03:08:40;14.13;93.76
72277;SHT30;61204;49.980;8.358;2022-09-09T03:11:12;14.07;93.88
72277;SHT30;61204;49.980;8.358;2022-09-09T03:13:39;14.00;93.85
72277;SHT30;61204;49.980;8.358;2022-09-09T03:16:05;13.93;94.15
72277;SHT30;61204;49.980;8.358;2022-09-09T03:18:31;13.89;94.29
72277;SHT30;61204;49.980;8.358;2022-09-09T03:20:57;13.82;94.28
72277;SHT30;61204;49.980;8.358;2022-09-09T03:23:25;13.80;94.53
72277;SHT30;61204;49.980;8.358;2022-09-09T03:25:51;14.03;94.95
72277;SHT30;61204;49.980;8.358;2022-09-09T03:28:18;14.13;94.63
72277;SHT30;61204;49.980;8.358;2022-09-09T03:30:45;14.16;94.60
72277;SHT30;61204;49.980;8.358;2022-09-09T03:33:11;14.20;94.51
72277;SHT30;61204;49.980;8.358;2022-09-09T03:35:37;14.27;94.33
72277;SHT30;61204;49.980;8.358;2022-09-09T03:38:04;14.21;94.40
72277;SHT30;61204;49.980;8.358;2022-09-09T03:40:30;14.18;94.58
72277;SHT30;61204;49.980;8.358;2022-09-09T03:42:56;14.22;94.67
72277;SHT30;61204;49.980;8.358;2022-09-09T03:45:22;14.25;94.48
72277;SHT30;61204;49.980;8.358;2022-09-09T03:47:48;14.21;94.44
72277;SHT30;61204;49.980;8.358;2022-09-09T03:50:16;14.27;94.50
72277;SHT30;61204;49.980;8.358;2022-09-09T03:52:43;14.31;94.15
72277;SHT30;61204;49.980;8.358;2022-09-09T03:55:09;14.39;93.87
72277;SHT30;61204;49.980;8.358;2022-09-09T03:57:35;14.34;93.99
72277;SHT30;61204;49.980;8.358;2022-09-09T04:00:07;14.31;93.98
72277;SHT30;61204;49.980;8.358;2022-09-09T04:02:35;14.27;94.23
72277;SHT30;61204;49.980;8.358;2022-09-09T04:05:02;14.34;94.22
72277;SHT30;61204;49.980;8.358;2022-09-09T04:07:27;14.35;94.02
72277;SHT30;61204;49.980;8.358;2022-09-09T04:09:58;14.37;93.89
72277;SHT30;61204;49.980;8.358;2022-09-09T04:12:25;14.31;94.05
72277;SHT30;61204;49.980;8.358;2022-09-09T04:14:52;14.31;94.18
72277;SHT30;61204;49.980;8.358;2022-09-09T04:17:17;14.31;94.18
72277;SHT30;61204;49.980;8.358;2022-09-09T04:19:43;14.41;93.76
72277;SHT30;61204;49.980;8.358;2022-09-09T04:22:09;14.39;93.53
72277;SHT30;61204;49.980;8.358;2022-09-09T04:24:35;14.38;93.76
72277;SHT30;61204;49.980;8.358;2022-09-09T04:27:01;14.51;93.06
72277;SHT30;61204;49.980;8.358;2022-09-09T04:29:27;14.51;93.06
72277;SHT30;61204;49.980;8.358;2022-09-09T04:31:52;14.49;93.09
72277;SHT30;61204;49.980;8.358;2022-09-09T04:34:18;14.44;93.28
72277;SHT30;61204;49.980;8.358;2022-09-09T04:36:45;14.39;93.63
72277;SHT30;61204;49.980;8.358;2022-09-09T04:39:11;14.29;93.65
72277;SHT30;61204;49.980;8.358;2022-09-09T04:41:36;14.21;93.87
72277;SHT30;61204;49.980;8.358;2022-09-09T04:44:03;14.20;94.02
72277;SHT30;61204;49.980;8.358;2022-09-09T04:46:29;14.16;94.14
72277;SHT30;61204;49.980;8.358;2022-09-09T04:48:54;14.07;94.15
72277;SHT30;61204;49.980;8.358;2022-09-09T04:51:21;14.03;94.29
72277;SHT30;61204;49.980;8.358;2022-09-09T04:53:46;13.97;94.39
72277;SHT30;61204;49.980;8.358;2022-09-09T04:56:17;13.97;94.46
72277;SHT30;61204;49.980;8.358;2022-09-09T04:58:43;13.97;94.43
72277;SHT30;61204;49.980;8.358;2022-09-09T05:01:17;13.99;94.64
72277;SHT30;61204;49.980;8.358;2022-09-09T05:03:45;13.99;94.66
72277;SHT30;61204;49.980;8.358;2022-09-09T05:06:19;13.96;94.36
72277;SHT30;61204;49.980;8.358;2022-09-09T05:08:46;13.97;94.39
72277;SHT30;61204;49.980;8.358;2022-09-09T05:11:25;14.03;94.69
72277;SHT30;61204;49.980;8.358;2022-09-09T05:13:53;14.00;94.62
72277;SHT30;61204;49.980;8.358;2022-09-09T05:16:20;13.96;94.63
72277;SHT30;61204;49.980;8.358;2022-09-09T05:18:48;13.94;94.62
72277;SHT30;61204;49.980;8.358;2022-09-09T05:21:18;13.97;94.80
72277;SHT30;61204;49.980;8.358;2022-09-09T05:23:45;13.99;94.84
72277;SHT30;61204;49.980;8.358;2022-09-09T05:26:18;14.00;94.85
72277;SHT30;61204;49.980;8.358;2022-09-09T05:28:47;14.04;94.87
72277;SHT30;61204;49.980;8.358;2022-09-09T05:31:16;14.01;94.80
72277;SHT30;61204;49.980;8.358;2022-09-09T05:33:45;14.01;94.80
72277;SHT30;61204;49.980;8.358;2022-09-09T05:36:20;14.04;94.82
72277;SHT30;61204;49.980;8.358;2022-09-09T05:38:48;14.32;94.19
72277;SHT30;61204;49.980;8.358;2022-09-09T05:41:16;14.65;92.81
72277;SHT30;61204;49.980;8.358;2022-09-09T05:43:44;14.72;92.22
72277;SHT30;61204;49.980;8.358;2022-09-09T05:46:14;14.71;92.07
72277;SHT30;61204;49.980;8.358;2022-09-09T05:48:44;14.72;91.90
72277;SHT30;61204;49.980;8.358;2022-09-09T05:51:19;14.77;92.09
72277;SHT30;61204;49.980;8.358;2022-09-09T05:53:50;15.00;91.64
72277;SHT30;61204;49.980;8.358;2022-09-09T05:56:22;15.38;90.83
72277;SHT30;61204;49.980;8.358;2022-09-09T05:58:51;15.72;89.91
72277;SHT30;61204;49.980;8.358;2022-09-09T06:01:28;16.10;88.56
72277;SHT30;61204;49.980;8.358;2022-09-09T06:03:56;16.47;89.09
72277;SHT30;61204;49.980;8.358;2022-09-09T06:06:31;16.83;87.31
72277;SHT30;61204;49.980;8.358;2022-09-09T06:09:03;17.14;86.68
72277;SHT30;61204;49.980;8.358;2022-09-09T06:11:33;17.13;86.79
72277;SHT30;61204;49.980;8.358;2022-09-09T06:14:02;17.06;85.41
72277;SHT30;61204;49.980;8.358;2022-09-09T06:16:30;16.96;85.51
72277;SHT30;61204;49.980;8.358;2022-09-09T06:18:59;16.89;85.43
72277;SHT30;61204;49.980;8.358;2022-09-09T06:21:34;16.72;86.53
72277;SHT30;61204;49.980;8.358;2022-09-09T06:24:05;16.77;86.21
72277;SHT30;61204;49.980;8.358;2022-09-09T06:26:35;16.86;86.55
72277;SHT30;61204;49.980;8.358;2022-09-09T06:29:07;16.84;86.41
72277;SHT30;61204;49.980;8.358;2022-09-09T06:31:35;17.02;85.85
72277;SHT30;61204;49.980;8.358;2022-09-09T06:34:05;17.20;84.89
72277;SHT30;61204;49.980;8.358;2022-09-09T06:36:37;17.48;84.44
72277;SHT30;61204;49.980;8.358;2022-09-09T06:39:11;17.90;84.51
72277;SHT30;61204;49.980;8.358;2022-09-09T06:41:38;17.79;82.39
72277;SHT30;61204;49.980;8.358;2022-09-09T06:44:04;17.80;83.34
72277;SHT30;61204;49.980;8.358;2022-09-09T06:46:31;17.79;83.39
72277;SHT30;61204;49.980;8.358;2022-09-09T06:48:59;17.80;82.08
72277;SHT30;61204;49.980;8.358;2022-09-09T06:51:31;17.66;83.54
72277;SHT30;61204;49.980;8.358;2022-09-09T06:54:01;17.76;82.89
72277;SHT30;61204;49.980;8.358;2022-09-09T06:56:31;17.72;82.55
72277;SHT30;61204;49.980;8.358;2022-09-09T06:59:05;17.58;82.85
72277;SHT30;61204;49.980;8.358;2022-09-09T07:01:42;17.52;83.39
72277;SHT30;61204;49.980;8.358;2022-09-09T07:04:17;17.62;83.33
72277;SHT30;61204;49.980;8.358;2022-09-09T07:06:45;17.58;82.48
72277;SHT30;61204;49.980;8.358;2022-09-09T07:09:14;17.73;81.15
72277;SHT30;61204;49.980;8.358;2022-09-09T07:11:48;17.66;80.47
72277;SHT30;61204;49.980;8.358;2022-09-09T07:14:17;17.78;80.02
72277;SHT30;61204;49.980;8.358;2022-09-09T07:16:47;17.80;79.94
72277;SHT30;61204;49.980;8.358;2022-09-09T07:19:13;17.80;79.43
72277;SHT30;61204;49.980;8.358;2022-09-09T07:21:41;17.99;78.90
72277;SHT30;61204;49.980;8.358;2022-09-09T07:24:08;18.20;77.35
72277;SHT30;61204;49.980;8.358;2022-09-09T07:26:37;18.31;78.27
72277;SHT30;61204;49.980;8.358;2022-09-09T07:29:05;18.37;77.62
72277;SHT30;61204;49.980;8.358;2022-09-09T07:31:35;18.28;76.62
72277;SHT30;61204;49.980;8.358;2022-09-09T07:34:04;18.24;77.28
72277;SHT30;61204;49.980;8.358;2022-09-09T07:36:38;18.37;77.78
72277;SHT30;61204;49.980;8.358;2022-09-09T07:39:13;18.40;77.52
72277;SHT30;61204;49.980;8.358;2022-09-09T07:41:49;18.33;77.62
72277;SHT30;61204;49.980;8.358;2022-09-09T07:44:22;18.33;78.01
72277;SHT30;61204;49.980;8.358;2022-09-09T07:46:51;18.48;77.39
72277;SHT30;61204;49.980;8.358;2022-09-09T07:49:17;18.76;76.74
72277;SHT30;61204;49.980;8.358;2022-09-09T07:51:47;18.79;75.31
72277;SHT30;61204;49.980;8.358;2022-09-09T07:54:19;18.93;75.44
72277;SHT30;61204;49.980;8.358;2022-09-09T07:56:50;19.17;75.86
72277;SHT30;61204;49.980;8.358;2022-09-09T07:59:20;19.30;74.81
72277;SHT30;61204;49.980;8.358;2022-09-09T08:01:50;19.30;73.94
72277;SHT30;61204;49.980;8.358;2022-09-09T08:04:23;19.28;75.18
72277;SHT30;61204;49.980;8.358;2022-09-09T08:07:00;19.54;73.44
72277;SHT30;61204;49.980;8.358;2022-09-09T08:09:29;19.38;74.23
72277;SHT30;61204;49.980;8.358;2022-09-09T08:11:58;19.85;73.13
72277;SHT30;61204;49.980;8.358;2022-09-09T08:14:54;20.65;71.00
72277;SHT30;61204;49.980;8.358;2022-09-09T08:17:39;20.97;69.27
72277;SHT30;61204;49.980;8.358;2022-09-09T08:20:06;20.76;70.06
72277;SHT30;61204;49.980;8.358;2022-09-09T08:22:35;20.07;70.86
72277;SHT30;61204;49.980;8.358;2022-09-09T08:25:04;19.86;71.27
72277;SHT30;61204;49.980;8.358;2022-09-09T08:27:32;19.94;70.42
72277;SHT30;61204;49.980;8.358;2022-09-09T08:29:58;19.75;71.65
72277;SHT30;61204;49.980;8.358;2022-09-09T08:32:26;19.93;70.80
72277;SHT30;61204;49.980;8.358;2022-09-09T08:34:56;20.09;71.40
72277;SHT30;61204;49.980;8.358;2022-09-09T08:37:31;20.13;70.92
72277;SHT30;61204;49.980;8.358;2022-09-09T08:40:20;20.01;71.14
72277;SHT30;61204;49.980;8.358;2022-09-09T08:43:02;19.90;71.45
72277;SHT30;61204;49.980;8.358;2022-09-09T08:46:10;19.94;71.21
72277;SHT30;61204;49.980;8.358;2022-09-09T08:53:37;20.10;69.17
72277;SHT30;61204;49.980;8.358;2022-09-09T08:56:24;20.10;69.42
72277;SHT30;61204;49.980;8.358;2022-09-09T08:59:28;20.04;69.24
72277;SHT30;61204;49.980;8.358;2022-09-09T09:02:42;19.93;69.62
72277;SHT30;61204;49.980;8.358;2022-09-09T09:12:44;20.16;69.56
72277;SHT30;61204;49.980;8.358;2022-09-09T09:15:24;19.80;71.02
72277;SHT30;61204;49.980;8.358;2022-09-09T09:17:57;19.96;70.57
72277;SHT30;61204;49.980;8.358;2022-09-09T09:21:38;19.93;68.97
72277;SHT30;61204;49.980;8.358;2022-09-09T09:24:54;20.59;65.37
72277;SHT30;61204;49.980;8.358;2022-09-09T09:28:24;21.69;62.91
72277;SHT30;61204;49.980;8.358;2022-09-09T09:31:33;22.17;60.95
72277;SHT30;61204;49.980;8.358;2022-09-09T09:34:51;22.89;59.26
72277;SHT30;61204;49.980;8.358;2022-09-09T09:39:01;23.55;56.88
72277;SHT30;61204;49.980;8.358;2022-09-09T12:02:49;22.75;60.13
72277;SHT30;61204;49.980;8.358;2022-09-09T12:05:17;22.27;60.52
72277;SHT30;61204;49.980;8.358;2022-09-09T12:07:57;21.99;58.30
72277;SHT30;61204;49.980;8.358;2022-09-09T12:10:35;21.79;57.28
72277;SHT30;61204;49.980;8.358;2022-09-09T12:13:26;21.47;66.19
72277;SHT30;61204;49.980;8.358;2022-09-09T12:15:58;20.04;71.59
72277;SHT30;61204;49.980;8.358;2022-09-09T12:18:39;19.00;75.83
72277;SHT30;61204;49.980;8.358;2022-09-09T12:21:35;18.65;77.99
72277;SHT30;61204;49.980;8.358;2022-09-09T12:24:19;18.33;77.29
72277;SHT30;61204;49.980;8.358;2022-09-09T12:27:14;18.13;78.64
72277;SHT30;61204;49.980;8.358;2022-09-09T12:30:09;18.00;77.35
72277;SHT30;61204;49.980;8.358;2022-09-09T12:32:39;18.00;77.65
72277;SHT30;61204;49.980;8.358;2022-09-09T12:35:21;18.00;77.67
72277;SHT30;61204;49.980;8.358;2022-09-09T12:37:59;17.97;78.71
72277;SHT30;61204;49.980;8.358;2022-09-09T12:40:32;17.94;77.68
72277;SHT30;61204;49.980;8.358;2022-09-09T12:43:16;17.85;78.29
72277;SHT30;61204;49.980;8.358;2022-09-09T12:45:45;17.55;81.37
72277;SHT30;61204;49.980;8.358;2022-09-09T12:48:12;17.31;81.50
72277;SHT30;61204;49.980;8.358;2022-09-09T12:50:50;17.14;82.61
72277;SHT30;61204;49.980;8.358;2022-09-09T12:53:23;17.07;77.53
72277;SHT30;61204;49.980;8.358;2022-09-09T12:56:05;17.04;79.37
72277;SHT30;61204;49.980;8.358;2022-09-09T12:58:34;16.99;76.48
72277;SHT30;61204;49.980;8.358;2022-09-09T13:01:05;17.18;75.92
72277;SHT30;61204;49.980;8.358;2022-09-09T13:03:33;17.32;76.27
72277;SHT30;61204;49.980;8.358;2022-09-09T13:06:24;17.99;77.24
72277;SHT30;61204;49.980;8.358;2022-09-09T13:08:59;18.65;78.39
72277;SHT30;61204;49.980;8.358;2022-09-09T13:14:58;20.12;71.66
72277;SHT30;61204;49.980;8.358;2022-09-09T13:17:27;20.61;66.68
72277;SHT30;61204;49.980;8.358;2022-09-09T13:19:56;20.95;64.28
72277;SHT30;61204;49.980;8.358;2022-09-09T13:22:38;21.66;63.60
72277;SHT30;61204;49.980;8.358;2022-09-09T13:27:38;22.81;57.58
72277;SHT30;61204;49.980;8.358;2022-09-09T13:30:29;22.79;54.31
72277;SHT30;61204;49.980;8.358;2022-09-09T13:33:22;23.02;55.06
72277;SHT30;61204;49.980;8.358;2022-09-09T13:36:09;22.88;55.24
72277;SHT30;61204;49.980;8.358;2022-09-09T13:39:00;22.82;55.81
72277;SHT30;61204;49.980;8.358;2022-09-09T13:41:33;22.29;55.59
72277;SHT30;61204;49.980;8.358;2022-09-09T13:44:28;21.69;56.75
72277;SHT30;61204;49.980;8.358;2022-09-09T13:47:29;21.41;58.71
72277;SHT30;61204;49.980;8.358;2022-09-09T13:50:27;20.90;59.84
72277;SHT30;61204;49.980;8.358;2022-09-09T13:53:04;20.75;61.11
72277;SHT30;61204;49.980;8.358;2022-09-09T13:55:32;20.51;62.32
72277;SHT30;61204;49.980;8.358;2022-09-09T13:58:05;20.59;62.20
72277;SHT30;61204;49.980;8.358;2022-09-09T14:01:30;20.76;61.69
72277;SHT30;61204;49.980;8.358;2022-09-09T14:04:56;20.52;61.73
72277;SHT30;61204;49.980;8.358;2022-09-09T14:08:36;20.69;61.66
72277;SHT30;61204;49.980;8.358;2022-09-09T14:12:33;20.62;62.32
72277;SHT30;61204;49.980;8.358;2022-09-09T14:16:41;20.58;63.68
72277;SHT30;61204;49.980;8.358;2022-09-09T17:23:23;17.65;81.00
72277;SHT30;61204;49.980;8.358;2022-09-09T17:25:57;17.32;82.63
72277;SHT30;61204;49.980;8.358;2022-09-09T17:28:24;17.25;83.55
72277;SHT30;61204;49.980;8.358;2022-09-09T17:30:58;17.10;84.52
72277;SHT30;61204;49.980;8.358;2022-09-09T17:33:31;17.00;85.03
72277;SHT30;61204;49.980;8.358;2022-09-09T17:36:01;16.82;86.39
72277;SHT30;61204;49.980;8.358;2022-09-09T17:38:31;16.71;86.13
72277;SHT30;61204;49.980;8.358;2022-09-09T17:41:21;16.59;87.24
72277;SHT30;61204;49.980;8.358;2022-09-09T17:43:49;16.40;88.56
72277;SHT30;61204;49.980;8.358;2022-09-09T17:46:24;16.34;88.99
72277;SHT30;61204;49.980;8.358;2022-09-09T17:48:59;16.21;89.41
72277;SHT30;61204;49.980;8.358;2022-09-09T17:51:30;16.20;89.59
72277;SHT30;61204;49.980;8.358;2022-09-09T17:54:02;16.10;90.63
72277;SHT30;61204;49.980;8.358;2022-09-09T17:56:33;16.04;91.54
72277;SHT30;61204;49.980;8.358;2022-09-09T17:59:03;16.06;91.58
72277;SHT30;61204;49.980;8.358;2022-09-09T18:01:38;16.07;92.47
72277;SHT30;61204;49.980;8.358;2022-09-09T18:04:08;16.04;92.81
72277;SHT30;61204;49.980;8.358;2022-09-09T18:06:43;16.04;89.67
72277;SHT30;61204;49.980;8.358;2022-09-09T18:09:16;16.11;88.18
72277;SHT30;61204;49.980;8.358;2022-09-09T18:11:48;15.97;88.48
72277;SHT30;61204;49.980;8.358;2022-09-09T18:14:22;16.00;86.46
72277;SHT30;61204;49.980;8.358;2022-09-09T18:16:51;15.99;85.06
72277;SHT30;61204;49.980;8.358;2022-09-09T18:19:23;15.93;85.68
72277;SHT30;61204;49.980;8.358;2022-09-09T18:21:51;15.82;85.97
72277;SHT30;61204;49.980;8.358;2022-09-09T18:24:19;15.80;84.45
72277;SHT30;61204;49.980;8.358;2022-09-09T18:26:47;15.79;84.04
72277;SHT30;61204;49.980;8.358;2022-09-09T18:29:20;15.73;84.89
72277;SHT30;61204;49.980;8.358;2022-09-09T18:31:54;15.85;84.23
72277;SHT30;61204;49.980;8.358;2022-09-09T18:34:21;15.85;83.67
72277;SHT30;61204;49.980;8.358;2022-09-09T18:37:04;15.82;84.13
72277;SHT30;61204;49.980;8.358;2022-09-09T18:39:48;15.72;84.74
72277;SHT30;61204;49.980;8.358;2022-09-09T18:42:14;15.70;84.16
72277;SHT30;61204;49.980;8.358;2022-09-09T18:44:43;15.66;85.49
72277;SHT30;61204;49.980;8.358;2022-09-09T18:47:12;15.66;85.54
72277;SHT30;61204;49.980;8.358;2022-09-09T18:49:54;15.55;86.25
72277;SHT30;61204;49.980;8.358;2022-09-09T18:52:28;15.41;86.86
72277;SHT30;61204;49.980;8.358;2022-09-09T18:55:05;15.38;87.06
72277;SHT30;61204;49.980;8.358;2022-09-09T18:57:32;15.41;87.33
72277;SHT30;61204;49.980;8.358;2022-09-09T18:59:59;15.28;87.81
72277;SHT30;61204;49.980;8.358;2022-09-09T19:02:27;15.21;88.81
72277;SHT30;61204;49.980;8.358;2022-09-09T19:04:52;15.07;89.54
72277;SHT30;61204;49.980;8.358;2022-09-09T19:07:18;14.97;90.07
72277;SHT30;61204;49.980;8.358;2022-09-09T19:09:45;14.87;90.66
72277;SHT30;61204;49.980;8.358;2022-09-09T19:12:11;14.87;90.69
72277;SHT30;61204;49.980;8.358;2022-09-09T19:14:37;14.86;90.95
72277;SHT30;61204;49.980;8.358;2022-09-09T19:17:08;14.79;91.05
72277;SHT30;61204;49.980;8.358;2022-09-09T19:19:37;14.75;91.51
72277;SHT30;61204;49.980;8.358;2022-09-09T19:22:07;14.66;91.68
72277;SHT30;61204;49.980;8.358;2022-09-09T19:24:36;14.66;91.93
72277;SHT30;61204;49.980;8.358;2022-09-09T19:27:05;14.59;91.97
72277;SHT30;61204;49.980;8.358;2022-09-09T19:29:34;14.58;92.18
72277;SHT30;61204;49.980;8.358;2022-09-09T19:32:04;14.45;92.93
72277;SHT30;61204;49.980;8.358;2022-09-09T19:34:30;14.51;92.89
72277;SHT30;61204;49.980;8.358;2022-09-09T19:36:56;14.49;92.71
72277;SHT30;61204;49.980;8.358;2022-09-09T19:39:22;14.46;92.83
72277;SHT30;61204;49.980;8.358;2022-09-09T19:41:48;14.51;92.47
72277;SHT30;61204;49.980;8.358;2022-09-09T19:44:15;14.45;92.47
72277;SHT30;61204;49.980;8.358;2022-09-09T19:46:43;14.38;93.06
72277;SHT30;61204;49.980;8.358;2022-09-09T19:49:12;14.35;93.55
72277;SHT30;61204;49.980;8.358;2022-09-09T19:51:39;14.32;94.02
72277;SHT30;61204;49.980;8.358;2022-09-09T19:54:11;14.28;94.54
72277;SHT30;61204;49.980;8.358;2022-09-09T19:56:40;14.28;95.04
72277;SHT30;61204;49.980;8.358;2022-09-09T19:59:10;14.28;95.43
72277;SHT30;61204;49.980;8.358;2022-09-09T20:01:40;14.21;95.59
72277;SHT30;61204;49.980;8.358;2022-09-09T20:04:12;14.27;95.75
72277;SHT30;61204;49.980;8.358;2022-09-09T20:06:41;14.20;95.87
72277;SHT30;61204;49.980;8.358;2022-09-09T20:09:13;14.18;95.88
72277;SHT30;61204;49.980;8.358;2022-09-09T20:11:43;14.14;95.78
72277;SHT30;61204;49.980;8.358;2022-09-09T20:14:11;14.11;95.91
72277;SHT30;61204;49.980;8.358;2022-09-09T20:16:37;14.14;95.92
72277;SHT30;61204;49.980;8.358;2022-09-09T20:19:07;14.11;95.78
72277;SHT30;61204;49.980;8.358;2022-09-09T20:21:40;14.07;95.62
72277;SHT30;61204;49.980;8.358;2022-09-09T20:24:19;14.01;95.67
72277;SHT30;61204;49.980;8.358;2022-09-09T20:26:48;14.06;95.81
72277;SHT30;61204;49.980;8.358;2022-09-09T20:29:15;14.01;95.65
72277;SHT30;61204;49.980;8.358;2022-09-09T20:31:43;13.96;95.68
72277;SHT30;61204;49.980;8.358;2022-09-09T20:34:13;13.93;95.52
72277;SHT30;61204;49.980;8.358;2022-09-09T20:36:40;13.90;95.46
72277;SHT30;61204;49.980;8.358;2022-09-09T20:39:15;13.86;95.49
72277;SHT30;61204;49.980;8.358;2022-09-09T20:41:44;13.90;95.36
72277;SHT30;61204;49.980;8.358;2022-09-09T20:44:21;13.84;95.50
72277;SHT30;61204;49.980;8.358;2022-09-09T20:46:54;13.80;95.57
72277;SHT30;61204;49.980;8.358;2022-09-09T20:49:24;13.75;95.66
72277;SHT30;61204;49.980;8.358;2022-09-09T20:51:51;13.67;95.96
72277;SHT30;61204;49.980;8.358;2022-09-09T20:54:26;13.72;96.35
72277;SHT30;61204;49.980;8.358;2022-09-09T20:56:55;13.72;96.74
72277;SHT30;61204;49.980;8.358;2022-09-09T20:59:24;13.67;96.77
72277;SHT30;61204;49.980;8.358;2022-09-09T21:01:53;13.58;96.76
72277;SHT30;61204;49.980;8.358;2022-09-09T21:04:20;13.54;96.91
72277;SHT30;61204;49.980;8.358;2022-09-09T21:06:49;13.56;97.12
72277;SHT30;61204;49.980;8.358;2022-09-09T21:09:19;13.55;97.08
72277;SHT30;61204;49.980;8.358;2022-09-09T21:11:47;13.54;97.17
72277;SHT30;61204;49.980;8.358;2022-09-09T21:14:13;13.49;97.21
72277;SHT30;61204;49.980;8.358;2022-09-09T21:16:40;13.48;97.21
72277;SHT30;61204;49.980;8.358;2022-09-09T21:19:06;13.42;97.24
72277;SHT30;61204;49.980;8.358;2022-09-09T21:21:32;13.37;97.32
72277;SHT30;61204;49.980;8.358;2022-09-09T21:24:03;13.38;97.47
72277;SHT30;61204;49.980;8.358;2022-09-09T21:26:30;13.35;97.52
72277;SHT30;61204;49.980;8.358;2022-09-09T21:28:56;13.31;97.52
72277;SHT30;61204;49.980;8.358;2022-09-09T21:31:22;13.29;97.68
72277;SHT30;61204;49.980;8.358;2022-09-09T21:33:48;13.25;97.62
72277;SHT30;61204;49.980;8.358;2022-09-09T21:36:14;13.20;97.78
72277;SHT30;61204;49.980;8.358;2022-09-09T21:38:41;13.14;97.79
72277;SHT30;61204;49.980;8.358;2022-09-09T21:41:13;13.10;97.87
72277;SHT30;61204;49.980;8.358;2022-09-09T21:43:42;13.07;98.00
72277;SHT30;61204;49.980;8.358;2022-09-09T21:46:12;13.12;98.17
72277;SHT30;61204;49.980;8.358;2022-09-09T21:48:40;13.21;98.45
72277;SHT30;61204;49.980;8.358;2022-09-09T21:51:10;13.18;98.26
72277;SHT30;61204;49.980;8.358;2022-09-09T21:53:39;13.10;98.27
72277;SHT30;61204;49.980;8.358;2022-09-09T21:56:11;13.06;98.27
72277;SHT30;61204;49.980;8.358;2022-09-09T21:58:39;12.99;98.30
72277;SHT30;61204;49.980;8.358;2022-09-09T22:01:17;12.92;98.31
72277;SHT30;61204;49.980;8.358;2022-09-09T22:03:44;12.84;98.36
72277;SHT30;61204;49.980;8.358;2022-09-09T22:06:16;12.82;98.46
72277;SHT30;61204;49.980;8.358;2022-09-09T22:08:44;12.83;98.52
72277;SHT30;61204;49.980;8.358;2022-09-09T22:11:15;12.89;98.72
72277;SHT30;61204;49.980;8.358;2022-09-09T22:13:44;12.89;98.68
72277;SHT30;61204;49.980;8.358;2022-09-09T22:16:17;12.86;98.69
72277;SHT30;61204;49.980;8.358;2022-09-09T22:18:54;12.94;98.87
72277;SHT30;61204;49.980;8.358;2022-09-09T22:21:30;13.04;98.89
72277;SHT30;61204;49.980;8.358;2022-09-09T22:24:03;13.10;98.79
72277;SHT30;61204;49.980;8.358;2022-09-09T22:26:33;13.10;98.78
72277;SHT30;61204;49.980;8.358;2022-09-09T22:29:05;13.15;98.71
72277;SHT30;61204;49.980;8.358;2022-09-09T22:31:33;13.20;98.71